Time;durP1;ratioP1;P1;durP2;ratioP2;P2;SDS_P1;SDS_P2;PMS_P1;PMS_P2;Temp;Humidity;BMP_temperature;BMP_pressure;BME280_temperature;BME280_humidity;BME280_pressure;Samples;Min_cycle;Max_cycle;Signal;HPM_P1;HPM_P2
2022/05/31 00:01:22;;;;;;;3.10;2.00;;;;;;;;;;5003881;28;20121;-78
2022/05/31 00:03:49;;;;;;;4.55;2.40;;;;;;;;;;4986916;28;20411;-78
2022/05/31 00:06:15;;;;;;;5.28;2.72;;;;;;;;;;4987597;28;20561;-78
2022/05/31 00:08:41;;;;;;;3.67;2.50;;;;;;;;;;5003577;28;20102;-78
2022/05/31 00:11:07;;;;;;;6.18;2.97;;;;;;;;;;5003325;28;20042;-78
2022/05/31 00:13:33;;;;;;;4.03;2.75;;;;;;;;;;5003692;28;20051;-78
2022/05/31 00:15:59;;;;;;;5.65;3.05;;;;;;;;;;5003126;28;20059;-78
2022/05/31 00:18:26;;;;;;;4.40;3.20;;;;;;;;;;4971254;28;20043;-78
2022/05/31 00:20:52;;;;;;;5.65;3.35;;;;;;;;;;5002977;28;20038;-78
2022/05/31 00:23:20;;;;;;;5.38;2.85;;;;;;;;;;5003315;28;20087;-78
2022/05/31 00:25:46;;;;;;;4.72;3.00;;;;;;;;;;4986271;28;20050;-78
2022/05/31 00:28:12;;;;;;;6.80;2.97;;;;;;;;;;4986295;28;20039;-78
2022/05/31 00:30:39;;;;;;;6.72;2.97;;;;;;;;;;5003360;28;20361;-78
2022/05/31 00:33:07;;;;;;;5.40;3.33;;;;;;;;;;5003060;28;20505;-78
2022/05/31 00:35:36;;;;;;;3.95;2.67;;;;;;;;;;5003460;28;20422;-77
2022/05/31 00:38:02;;;;;;;4.85;2.67;;;;;;;;;;5002280;28;20043;-78
2022/05/31 00:40:29;;;;;;;4.68;2.92;;;;;;;;;;5003088;28;20043;-77
2022/05/31 00:42:57;;;;;;;6.38;3.05;;;;;;;;;;5002487;28;20087;-77
2022/05/31 00:45:46;;;;;;;4.63;3.15;;;;;;;;;;4970276;28;20038;-77
2022/05/31 00:48:15;;;;;;;10.25;3.00;;;;;;;;;;4967704;28;20609;-77
2022/05/31 00:50:46;;;;;;;6.47;3.20;;;;;;;;;;5002984;28;20039;-77
2022/05/31 00:53:18;;;;;;;4.85;2.90;;;;;;;;;;4969943;28;20058;-78
2022/05/31 00:55:51;;;;;;;4.63;3.00;;;;;;;;;;5002651;28;20406;-78
2022/05/31 00:58:23;;;;;;;7.20;3.05;;;;;;;;;;4986444;28;20124;-78
2022/05/31 01:00:52;;;;;;;6.60;3.50;;;;;;;;;;4983587;28;20049;-78
2022/05/31 01:03:20;;;;;;;6.45;2.90;;;;;;;;;;5002539;28;20051;-78
2022/05/31 01:05:46;;;;;;;5.45;3.22;;;;;;;;;;5001905;28;20038;-78
2022/05/31 01:08:12;;;;;;;5.10;3.40;;;;;;;;;;5002211;28;20070;-78
2022/05/31 01:10:40;;;;;;;5.00;3.40;;;;;;;;;;5002560;28;20105;-78
2022/05/31 01:13:07;;;;;;;6.88;3.80;;;;;;;;;;5002411;28;20074;-78
2022/05/31 01:15:33;;;;;;;5.72;3.67;;;;;;;;;;4969479;28;20093;-78
2022/05/31 01:17:59;;;;;;;5.70;3.40;;;;;;;;;;4985697;28;20455;-78
2022/05/31 01:20:26;;;;;;;5.47;3.58;;;;;;;;;;5001915;28;20093;-78
2022/05/31 01:22:56;;;;;;;5.93;3.55;;;;;;;;;;5002197;28;20321;-78
2022/05/31 01:25:23;;;;;;;5.60;3.50;;;;;;;;;;4985966;28;20055;-78
2022/05/31 01:28:08;;;;;;;5.78;3.45;;;;;;;;;;5015427;28;20054;-78
2022/05/31 01:30:41;;;;;;;6.53;3.85;;;;;;;;;;5002548;28;20041;-78
2022/05/31 01:33:26;;;;;;;6.35;4.18;;;;;;;;;;5001886;28;20062;-78
2022/05/31 01:35:53;;;;;;;7.13;4.00;;;;;;;;;;5001859;28;20051;-78
2022/05/31 01:38:24;;;;;;;6.00;3.80;;;;;;;;;;5002169;28;20051;-78
2022/05/31 01:41:03;;;;;;;6.05;3.72;;;;;;;;;;5002306;28;20046;-78
2022/05/31 01:43:29;;;;;;;5.75;3.78;;;;;;;;;;4969611;28;20074;-78
2022/05/31 01:45:56;;;;;;;5.50;3.95;;;;;;;;;;5001873;28;20050;-78
2022/05/31 01:48:23;;;;;;;6.65;3.90;;;;;;;;;;4984777;28;20043;-78
2022/05/31 01:50:49;;;;;;;6.68;4.00;;;;;;;;;;5001406;28;20050;-79
2022/05/31 01:53:16;;;;;;;6.15;4.13;;;;;;;;;;5002118;28;20050;-79
2022/05/31 01:55:43;;;;;;;6.57;3.72;;;;;;;;;;5001807;28;20046;-79
2022/05/31 01:58:12;;;;;;;5.28;3.97;;;;;;;;;;4984903;28;20123;-80
2022/05/31 02:00:39;;;;;;;5.97;4.07;;;;;;;;;;5002018;28;20077;-78
2022/05/31 02:03:06;;;;;;;6.07;4.25;;;;;;;;;;4984046;28;20050;-78
2022/05/31 02:05:32;;;;;;;6.80;3.70;;;;;;;;;;5001320;28;20388;-78
2022/05/31 02:08:00;;;;;;;5.68;3.80;;;;;;;;;;4991997;28;20058;-78
2022/05/31 02:10:27;;;;;;;5.55;4.10;;;;;;;;;;4971049;28;20125;-78
2022/05/31 02:12:53;;;;;;;6.72;4.20;;;;;;;;;;4983710;28;20085;-78
2022/05/31 02:15:21;;;;;;;5.32;3.95;;;;;;;;;;4984932;28;20109;-79
2022/05/31 02:17:47;;;;;;;5.88;4.10;;;;;;;;;;4985377;28;20475;-78
2022/05/31 02:20:14;;;;;;;5.28;3.45;;;;;;;;;;4985531;28;20079;-79
2022/05/31 02:22:40;;;;;;;7.07;3.63;;;;;;;;;;5001491;28;20117;-78
2022/05/31 02:25:07;;;;;;;7.10;3.92;;;;;;;;;;4968565;28;20050;-78
2022/05/31 02:27:33;;;;;;;6.22;4.03;;;;;;;;;;4985372;28;20510;-78
2022/05/31 02:29:59;;;;;;;5.30;3.75;;;;;;;;;;5001022;28;20046;-79
2022/05/31 02:32:25;;;;;;;6.72;4.07;;;;;;;;;;4985150;28;20057;-78
2022/05/31 02:34:52;;;;;;;6.07;4.10;;;;;;;;;;5001050;28;20043;-79
2022/05/31 02:37:19;;;;;;;7.05;4.00;;;;;;;;;;4984943;28;20039;-78
2022/05/31 02:39:46;;;;;;;6.53;3.67;;;;;;;;;;4968696;28;20047;-78
2022/05/31 02:42:12;;;;;;;6.13;3.78;;;;;;;;;;4984971;28;20043;-78
2022/05/31 02:44:39;;;;;;;6.05;3.90;;;;;;;;;;4985233;28;20051;-78
2022/05/31 02:47:07;;;;;;;6.38;4.05;;;;;;;;;;4984196;28;20044;-78
2022/05/31 02:49:33;;;;;;;5.82;4.22;;;;;;;;;;5001441;28;20081;-79
2022/05/31 02:52:00;;;;;;;8.75;4.80;;;;;;;;;;4984321;28;20042;-78
2022/05/31 02:54:26;;;;;;;6.97;4.38;;;;;;;;;;4984627;28;20371;-78
2022/05/31 02:56:52;;;;;;;7.05;4.50;;;;;;;;;;4975987;28;20113;-78
2022/05/31 02:59:19;;;;;;;6.53;4.43;;;;;;;;;;4968701;28;20069;-78
2022/05/31 03:01:45;;;;;;;8.68;4.55;;;;;;;;;;4988296;28;20046;-78
2022/05/31 03:04:12;;;;;;;5.82;4.20;;;;;;;;;;4988135;28;20042;-78
2022/05/31 03:06:40;;;;;;;5.43;4.13;;;;;;;;;;4988173;28;20058;-77
2022/05/31 03:09:07;;;;;;;5.45;4.30;;;;;;;;;;5004062;28;20047;-78
2022/05/31 03:11:40;;;;;;;4.95;3.40;;;;;;;;;;5004284;28;20051;-78
2022/05/31 03:14:08;;;;;;;5.65;3.83;;;;;;;;;;4991573;28;20046;-78
2022/05/31 03:16:37;;;;;;;6.82;4.00;;;;;;;;;;4981360;28;20458;-78
2022/05/31 03:19:05;;;;;;;5.90;4.00;;;;;;;;;;4987652;28;20087;-78
2022/05/31 03:21:36;;;;;;;6.30;4.15;;;;;;;;;;5004630;28;20042;-77
2022/05/31 03:24:06;;;;;;;7.15;4.70;;;;;;;;;;4971819;28;20585;-77
2022/05/31 03:26:32;;;;;;;5.85;4.05;;;;;;;;;;4972169;28;21063;-77
2022/05/31 03:28:59;;;;;;;6.93;4.28;;;;;;;;;;5004062;28;20046;-78
2022/05/31 03:31:25;;;;;;;6.18;3.95;;;;;;;;;;4993165;28;20461;-78
2022/05/31 03:33:51;;;;;;;5.97;3.72;;;;;;;;;;4979386;28;20046;-78
2022/05/31 03:36:17;;;;;;;7.22;3.70;;;;;;;;;;4955824;28;20390;-78
2022/05/31 03:38:43;;;;;;;7.47;4.25;;;;;;;;;;4987683;28;20042;-78
2022/05/31 03:41:10;;;;;;;6.43;4.43;;;;;;;;;;4987328;28;20047;-78
2022/05/31 03:43:36;;;;;;;6.00;3.97;;;;;;;;;;5004243;28;20446;-78
2022/05/31 03:46:02;;;;;;;6.53;4.10;;;;;;;;;;4987597;28;20379;-78
2022/05/31 03:48:29;;;;;;;5.63;4.07;;;;;;;;;;4971026;28;20046;-78
2022/05/31 03:51:02;;;;;;;5.70;4.10;;;;;;;;;;4986945;28;20039;-78
2022/05/31 03:53:29;;;;;;;6.95;4.30;;;;;;;;;;4987424;28;20491;-78
2022/05/31 03:55:55;;;;;;;8.35;4.63;;;;;;;;;;4984564;28;20039;-78
2022/05/31 03:58:21;;;;;;;5.80;4.32;;;;;;;;;;5000825;28;20043;-78
2022/05/31 04:00:47;;;;;;;6.88;4.20;;;;;;;;;;4987218;28;20047;-77
2022/05/31 04:03:14;;;;;;;6.57;4.30;;;;;;;;;;4987427;28;20295;-78
2022/05/31 04:05:40;;;;;;;5.38;3.90;;;;;;;;;;4970830;28;20038;-78
2022/05/31 04:08:08;;;;;;;5.90;3.90;;;;;;;;;;4987406;28;20428;-78
2022/05/31 04:10:35;;;;;;;6.45;4.00;;;;;;;;;;4970872;28;20043;-78
2022/05/31 04:13:02;;;;;;;6.63;4.20;;;;;;;;;;4986468;28;20050;-78
2022/05/31 04:15:28;;;;;;;5.90;4.20;;;;;;;;;;4970321;28;20074;-78
2022/05/31 04:17:54;;;;;;;5.95;4.40;;;;;;;;;;4987138;28;20550;-78
2022/05/31 04:20:21;;;;;;;5.88;4.07;;;;;;;;;;4986520;28;20097;-77
2022/05/31 04:22:48;;;;;;;7.20;4.22;;;;;;;;;;4986740;28;20051;-78
2022/05/31 04:25:14;;;;;;;5.32;3.55;;;;;;;;;;4987560;28;20666;-78
2022/05/31 04:27:40;;;;;;;7.18;4.10;;;;;;;;;;4986695;28;20051;-78
2022/05/31 04:30:06;;;;;;;7.80;3.88;;;;;;;;;;4970384;28;20047;-78
2022/05/31 04:32:33;;;;;;;5.72;3.22;;;;;;;;;;4986547;28;20075;-78
2022/05/31 04:34:59;;;;;;;7.30;3.53;;;;;;;;;;4970564;28;20050;-84
2022/05/31 04:37:25;;;;;;;5.78;3.80;;;;;;;;;;4987280;28;20056;-84
2022/05/31 04:39:51;;;;;;;5.40;3.67;;;;;;;;;;5000434;28;20045;-83
2022/05/31 04:42:17;;;;;;;4.85;3.60;;;;;;;;;;4987918;28;20042;-83
2022/05/31 04:44:43;;;;;;;6.00;3.85;;;;;;;;;;5001340;28;20467;-83
2022/05/31 04:47:09;;;;;;;6.07;3.78;;;;;;;;;;5003551;28;20046;-84
2022/05/31 04:49:36;;;;;;;7.10;3.97;;;;;;;;;;4987930;28;20047;-84
2022/05/31 04:52:02;;;;;;;7.13;3.92;;;;;;;;;;4990816;28;20549;-84
2022/05/31 04:54:30;;;;;;;5.75;3.30;;;;;;;;;;4977417;28;20125;-83
2022/05/31 04:56:59;;;;;;;8.32;3.50;;;;;;;;;;5015901;28;20054;-83
2022/05/31 04:59:26;;;;;;;4.70;3.60;;;;;;;;;;5006298;28;20095;-84
2022/05/31 05:01:52;;;;;;;6.20;3.97;;;;;;;;;;4984720;28;20063;-84
2022/05/31 05:04:18;;;;;;;5.47;3.40;;;;;;;;;;4961202;28;20089;-84
2022/05/31 05:06:45;;;;;;;5.07;3.60;;;;;;;;;;4972614;28;20047;-84
2022/05/31 05:09:11;;;;;;;6.35;3.75;;;;;;;;;;4983042;28;20042;-84
2022/05/31 05:11:37;;;;;;;4.82;3.70;;;;;;;;;;4986723;28;20043;-85
2022/05/31 05:14:03;;;;;;;7.35;3.60;;;;;;;;;;5003280;28;20470;-85
2022/05/31 05:16:29;;;;;;;5.80;3.78;;;;;;;;;;4986999;28;20051;-85
2022/05/31 05:18:56;;;;;;;6.75;3.95;;;;;;;;;;5000182;28;20089;-84
2022/05/31 05:21:22;;;;;;;5.25;3.38;;;;;;;;;;5002706;28;20094;-79
2022/05/31 05:23:48;;;;;;;9.25;4.32;;;;;;;;;;4985226;28;20807;-79
2022/05/31 05:26:15;;;;;;;6.25;3.65;;;;;;;;;;5002657;28;20394;-79
2022/05/31 05:31:27;;;;;;;7.90;3.55;;;;;;;;;;4985963;28;20047;-79
2022/05/31 05:33:56;;;;;;;6.10;3.40;;;;;;;;;;4985743;28;20094;-79
2022/05/31 05:36:23;;;;;;;5.45;3.55;;;;;;;;;;4985951;28;20089;-78
2022/05/31 05:38:49;;;;;;;6.43;3.55;;;;;;;;;;4969355;28;20041;-79
2022/05/31 05:41:15;;;;;;;6.78;3.78;;;;;;;;;;4985546;28;20483;-79
2022/05/31 05:43:41;;;;;;;8.95;4.13;;;;;;;;;;4985671;28;20078;-79
2022/05/31 05:46:13;;;;;;;7.55;3.78;;;;;;;;;;4985149;28;20117;-78
2022/05/31 05:48:40;;;;;;;5.68;3.72;;;;;;;;;;4985547;28;20513;-79
2022/05/31 05:51:22;;;;;;;6.22;3.63;;;;;;;;;;4985475;28;20458;-79
2022/05/31 05:53:49;;;;;;;6.03;3.72;;;;;;;;;;4973613;28;20042;-79
2022/05/31 05:56:15;;;;;;;6.30;4.10;;;;;;;;;;4985648;28;20249;-78
2022/05/31 05:58:42;;;;;;;4.65;3.35;;;;;;;;;;4985414;28;20038;-79
2022/05/31 06:01:10;;;;;;;5.97;3.45;;;;;;;;;;4969053;28;20039;-79
2022/05/31 06:03:42;;;;;;;6.10;3.60;;;;;;;;;;4969216;28;20034;-80
2022/05/31 06:06:09;;;;;;;6.95;3.42;;;;;;;;;;4985397;28;20042;-79
2022/05/31 06:08:37;;;;;;;7.55;3.95;;;;;;;;;;4968978;28;20274;-78
2022/05/31 06:11:11;;;;;;;5.35;3.58;;;;;;;;;;4985093;28;20039;-80
2022/05/31 06:13:40;;;;;;;6.53;3.55;;;;;;;;;;4968470;28;20039;-79
2022/05/31 06:16:06;;;;;;;8.82;3.55;;;;;;;;;;4994039;28;20061;-78
2022/05/31 06:18:40;;;;;;;6.45;3.53;;;;;;;;;;4973462;28;20050;-77
2022/05/31 06:21:08;;;;;;;5.35;3.60;;;;;;;;;;4985208;28;20382;-77
2022/05/31 06:23:35;;;;;;;7.25;3.60;;;;;;;;;;5001642;28;20154;-78
2022/05/31 06:26:01;;;;;;;6.18;3.80;;;;;;;;;;4987666;28;20046;-79
2022/05/31 06:28:27;;;;;;;6.05;3.40;;;;;;;;;;4979739;28;20042;-78
2022/05/31 06:30:53;;;;;;;7.28;3.13;;;;;;;;;;4984569;28;20064;-79
2022/05/31 06:33:19;;;;;;;5.90;3.45;;;;;;;;;;4969368;28;20035;-78
2022/05/31 06:35:45;;;;;;;6.15;3.42;;;;;;;;;;5003517;28;20414;-78
2022/05/31 06:38:12;;;;;;;6.22;3.35;;;;;;;;;;4988664;28;20046;-78
2022/05/31 06:40:41;;;;;;;6.30;3.22;;;;;;;;;;4988930;28;20043;-78
2022/05/31 06:43:07;;;;;;;4.90;2.55;;;;;;;;;;4988301;28;20045;-79
2022/05/31 06:45:33;;;;;;;4.60;3.10;;;;;;;;;;4988726;28;20109;-80
2022/05/31 06:47:59;;;;;;;4.13;3.03;;;;;;;;;;5005176;28;20410;-79
2022/05/31 06:50:25;;;;;;;6.40;3.08;;;;;;;;;;4988635;28;20042;-78
2022/05/31 06:58:20;;;;;;;5.57;2.83;;;;;;;;;;5002627;28;20491;-77
2022/05/31 07:00:46;;;;;;;5.45;2.90;;;;;;;;;;4988291;28;20039;-76
2022/05/31 07:03:13;;;;;;;7.65;3.08;;;;;;;;;;4988152;28;20039;-76
2022/05/31 07:05:42;;;;;;;5.60;2.78;;;;;;;;;;4972669;28;20038;-76
2022/05/31 07:08:08;;;;;;;6.93;2.47;;;;;;;;;;4988122;28;20054;-77
2022/05/31 07:10:34;;;;;;;5.10;2.80;;;;;;;;;;4988282;28;20085;-75
2022/05/31 07:13:00;;;;;;;6.07;2.90;;;;;;;;;;4972788;28;20043;-78
2022/05/31 07:15:26;;;;;;;5.72;2.63;;;;;;;;;;4971636;28;20105;-75
2022/05/31 07:17:52;;;;;;;4.70;2.35;;;;;;;;;;4988015;28;20505;-74
2022/05/31 07:20:19;;;;;;;4.85;2.90;;;;;;;;;;4988469;28;20546;-76
2022/05/31 07:22:45;;;;;;;6.05;3.05;;;;;;;;;;4987691;28;20053;-76
2022/05/31 07:25:11;;;;;;;6.65;2.92;;;;;;;;;;4987657;28;20043;-78
2022/05/31 07:27:38;;;;;;;6.63;3.05;;;;;;;;;;4971814;28;20047;-77
2022/05/31 07:30:05;;;;;;;5.68;3.05;;;;;;;;;;4987087;28;20050;-76
2022/05/31 07:32:32;;;;;;;5.45;3.00;;;;;;;;;;4987678;28;20046;-77
2022/05/31 07:34:58;;;;;;;5.43;3.05;;;;;;;;;;4971257;28;20043;-77
2022/05/31 07:37:24;;;;;;;6.25;2.90;;;;;;;;;;4987976;28;20109;-76
2022/05/31 07:39:50;;;;;;;5.40;3.28;;;;;;;;;;4987719;28;20107;-80
2022/05/31 07:42:16;;;;;;;4.55;3.08;;;;;;;;;;4987735;28;20047;-77
2022/05/31 07:44:42;;;;;;;6.85;3.58;;;;;;;;;;4987437;28;20054;-75
2022/05/31 07:47:08;;;;;;;6.22;3.50;;;;;;;;;;4986056;28;20133;-77
2022/05/31 07:49:34;;;;;;;4.63;3.35;;;;;;;;;;4971487;28;20049;-77
2022/05/31 07:52:00;;;;;;;7.25;3.47;;;;;;;;;;4970685;28;20549;-75
2022/05/31 07:54:29;;;;;;;6.43;3.38;;;;;;;;;;4987579;28;20046;-77
2022/05/31 07:56:55;;;;;;;4.20;3.15;;;;;;;;;;4981200;28;20073;-78
2022/05/31 07:59:21;;;;;;;5.18;3.58;;;;;;;;;;4971465;28;20082;-77
2022/05/31 08:01:47;;;;;;;6.78;3.60;;;;;;;;;;4954792;28;20050;-78
2022/05/31 08:04:14;;;;;;;5.25;3.38;;;;;;;;;;4986872;28;20042;-77
2022/05/31 08:06:41;;;;;;;6.10;3.78;;;;;;;;;;5003761;28;20395;-76
2022/05/31 08:09:07;;;;;;;6.28;3.45;;;;;;;;;;4987092;28;20530;-78
2022/05/31 08:11:34;;;;;;;6.10;3.13;;;;;;;;;;4970996;28;20043;-77
2022/05/31 08:14:01;;;;;;;6.90;3.50;;;;;;;;;;4971427;28;20435;-75
2022/05/31 08:16:28;;;;;;;5.85;3.67;;;;;;;;;;4970993;28;20533;-81
2022/05/31 08:18:55;;;;;;;6.28;3.45;;;;;;;;;;5003063;28;20077;-77
2022/05/31 08:21:27;;;;;;;7.70;3.70;;;;;;;;;;5003194;28;20074;-79
2022/05/31 08:23:57;;;;;;;6.60;3.65;;;;;;;;;;5003326;28;20123;-77
2022/05/31 08:26:24;;;;;;;7.03;3.90;;;;;;;;;;4987449;28;20039;-78
2022/05/31 08:28:50;;;;;;;6.03;4.32;;;;;;;;;;4972009;28;20038;-75
2022/05/31 08:31:20;;;;;;;5.43;3.45;;;;;;;;;;4971029;28;20050;-77
2022/05/31 08:33:46;;;;;;;7.30;4.00;;;;;;;;;;4970620;28;20410;-77
2022/05/31 08:36:12;;;;;;;8.02;4.00;;;;;;;;;;4985820;28;20046;-76
2022/05/31 08:38:39;;;;;;;9.23;3.83;;;;;;;;;;4986835;28;20031;-75
2022/05/31 08:41:11;;;;;;;7.03;4.18;;;;;;;;;;5002583;28;20045;-76
2022/05/31 08:43:48;;;;;;;7.00;3.60;;;;;;;;;;4986759;28;20090;-77
2022/05/31 08:46:17;;;;;;;8.65;3.92;;;;;;;;;;4985573;28;20057;-76
2022/05/31 08:49:06;;;;;;;8.98;4.50;;;;;;;;;;4986706;28;20506;-78
2022/05/31 08:51:52;;;;;;;7.90;4.05;;;;;;;;;;4986492;28;20034;-76
2022/05/31 08:57:13;;;;;;;7.30;3.88;;;;;;;;;;5002422;28;20047;-77
2022/05/31 08:59:43;;;;;;;7.80;4.00;;;;;;;;;;4986069;28;20142;-77
2022/05/31 09:02:18;;;;;;;6.22;3.90;;;;;;;;;;4986095;28;20294;-77
2022/05/31 09:04:44;;;;;;;;;;;;;;;;;;4986918;28;20170;-77
2022/05/31 09:07:16;;;;;;;7.70;3.65;;;;;;;;;;5001863;28;20005;-77
2022/05/31 09:10:04;;;;;;;5.63;3.10;;;;;;;;;;4986837;28;20498;-77
2022/05/31 09:12:33;;;;;;;6.60;3.53;;;;;;;;;;4969672;28;20046;-77
2022/05/31 09:15:05;;;;;;;7.30;4.20;;;;;;;;;;4985727;28;20058;-81
2022/05/31 09:17:37;;;;;;;8.25;3.70;;;;;;;;;;4973266;28;20097;-76
2022/05/31 09:20:06;;;;;;;8.82;4.15;;;;;;;;;;4985495;28;20109;-77
2022/05/31 09:22:32;;;;;;;7.00;3.72;;;;;;;;;;4985696;28;20067;-77
2022/05/31 09:25:00;;;;;;;5.88;4.00;;;;;;;;;;4985891;28;20042;-78
2022/05/31 09:27:42;;;;;;;8.32;4.15;;;;;;;;;;5002314;28;20096;-77
2022/05/31 09:30:11;;;;;;;7.20;3.63;;;;;;;;;;4985880;28;20081;-79
2022/05/31 09:32:43;;;;;;;7.13;4.13;;;;;;;;;;5002396;28;20558;-78
2022/05/31 09:35:10;;;;;;;8.73;4.13;;;;;;;;;;4985105;28;20043;-77
2022/05/31 09:37:45;;;;;;;8.35;4.07;;;;;;;;;;4985735;28;20051;-78
2022/05/31 09:40:17;;;;;;;8.63;3.90;;;;;;;;;;4985628;28;20042;-75
2022/05/31 09:42:50;;;;;;;6.03;3.63;;;;;;;;;;4985363;28;20046;-78
2022/05/31 09:45:17;;;;;;;7.75;3.88;;;;;;;;;;4985227;28;20051;-78
2022/05/31 09:47:43;;;;;;;8.70;4.85;;;;;;;;;;4985326;28;20129;-77
2022/05/31 09:50:09;;;;;;;8.32;4.05;;;;;;;;;;4985143;28;20042;-78
2022/05/31 09:52:43;;;;;;;9.85;4.53;;;;;;;;;;4985399;28;20093;-76
2022/05/31 09:58:17;;;;;;;7.90;4.25;;;;;;;;;;4980861;28;20050;-84
2022/05/31 10:01:04;;;;;;;7.03;4.00;;;;;;;;;;5005209;28;20047;-77
2022/05/31 10:03:41;;;;;;;7.20;4.00;;;;;;;;;;4984906;28;20057;-78
2022/05/31 10:06:14;;;;;;;7.60;4.25;;;;;;;;;;4985303;28;20121;-78
2022/05/31 10:08:41;;;;;;;6.28;3.60;;;;;;;;;;4985312;28;20039;-78
2022/05/31 10:11:12;;;;;;;7.18;3.85;;;;;;;;;;4968565;28;20113;-78
2022/05/31 10:13:40;;;;;;;7.65;3.72;;;;;;;;;;4970055;28;20035;-78
2022/05/31 10:16:16;;;;;;;5.70;3.58;;;;;;;;;;5001538;28;20049;-77
2022/05/31 10:18:47;;;;;;;7.30;3.55;;;;;;;;;;5001759;28;20403;-77
2022/05/31 10:21:13;;;;;;;6.43;3.72;;;;;;;;;;4984878;28;20101;-78
2022/05/31 10:23:41;;;;;;;5.93;3.20;;;;;;;;;;4985330;28;20566;-77
2022/05/31 10:26:07;;;;;;;7.72;3.10;;;;;;;;;;5001315;28;20035;-77
2022/05/31 10:28:40;;;;;;;6.25;3.10;;;;;;;;;;4985448;28;20066;-78
2022/05/31 10:31:15;;;;;;;5.15;3.00;;;;;;;;;;4985058;28;20450;-78
2022/05/31 10:33:41;;;;;;;6.28;2.97;;;;;;;;;;4985090;28;20479;-78
2022/05/31 10:36:16;;;;;;;4.97;2.80;;;;;;;;;;4968483;28;20039;-77
2022/05/31 10:38:43;;;;;;;7.17;3.40;;;;;;;;;;4969005;28;20053;-77
2022/05/31 10:41:12;;;;;;;5.93;3.50;;;;;;;;;;4984665;28;20278;-75
2022/05/31 10:43:44;;;;;;;9.23;3.10;;;;;;;;;;4984993;28;20039;-77
2022/05/31 10:46:10;;;;;;;4.68;2.78;;;;;;;;;;4985876;28;20418;-78
2022/05/31 10:48:41;;;;;;;5.55;2.97;;;;;;;;;;4997825;28;20038;-78
2022/05/31 10:51:13;;;;;;;5.85;2.80;;;;;;;;;;5001098;28;20042;-77
2022/05/31 10:53:42;;;;;;;5.57;2.88;;;;;;;;;;4971989;28;20050;-78
2022/05/31 10:56:15;;;;;;;6.25;2.95;;;;;;;;;;4964141;28;20506;-77
2022/05/31 10:58:42;;;;;;;6.70;3.60;;;;;;;;;;5001946;28;20045;-78
2022/05/31 11:01:14;;;;;;;5.13;2.95;;;;;;;;;;4968809;28;20506;-78
2022/05/31 11:03:40;;;;;;;4.57;3.20;;;;;;;;;;4984412;28;20134;-78
2022/05/31 11:06:16;;;;;;;5.28;3.45;;;;;;;;;;4984382;28;20046;-78
2022/05/31 11:11:30;;;;;;;6.57;3.15;;;;;;;;;;5001346;28;20042;-78
2022/05/31 11:14:16;;;;;;;9.02;3.85;;;;;;;;;;4984672;28;20051;-77
2022/05/31 11:17:01;;;;;;;6.47;4.00;;;;;;;;;;4984655;28;20047;-77
2022/05/31 11:19:29;;;;;;;7.03;3.80;;;;;;;;;;5001100;28;20502;-76
2022/05/31 11:22:14;;;;;;;6.85;3.58;;;;;;;;;;4985971;28;20039;-78
2022/05/31 11:24:59;;;;;;;7.15;3.75;;;;;;;;;;4988143;28;20372;-78
2022/05/31 11:27:37;;;;;;;6.53;3.35;;;;;;;;;;4972130;28;20499;-78
2022/05/31 11:30:16;;;;;;;7.80;3.80;;;;;;;;;;4972064;28;20498;-78
2022/05/31 11:32:45;;;;;;;8.77;4.05;;;;;;;;;;4971906;28;20053;-78
2022/05/31 11:35:24;;;;;;;11.50;3.92;;;;;;;;;;4987587;28;20088;-77
2022/05/31 11:37:56;;;;;;;7.15;4.10;;;;;;;;;;4990076;28;20049;-83
2022/05/31 11:40:39;;;;;;;8.73;4.00;;;;;;;;;;4982334;28;20043;-78
2022/05/31 11:43:13;;;;;;;8.20;3.67;;;;;;;;;;5004311;28;20038;-78
2022/05/31 11:45:47;;;;;;;5.68;3.22;;;;;;;;;;4998275;28;20782;-77
2022/05/31 11:48:22;;;;;;;8.07;4.50;;;;;;;;;;4973520;28;20127;-77
2022/05/31 11:50:54;;;;;;;8.35;4.50;;;;;;;;;;5004132;28;20126;-78
2022/05/31 11:53:46;;;;;;;7.60;4.65;;;;;;;;;;4987041;28;20050;-78
2022/05/31 11:56:23;;;;;;;7.72;3.90;;;;;;;;;;4983374;28;20047;-88
2022/05/31 11:58:55;;;;;;;8.55;4.00;;;;;;;;;;4984386;28;20521;-89
2022/05/31 12:01:24;;;;;;;8.35;3.80;;;;;;;;;;4992377;28;20398;-89
2022/05/31 12:04:09;;;;;;;8.23;4.30;;;;;;;;;;4997654;28;20046;-91
2022/05/31 12:06:38;;;;;;;6.25;3.90;;;;;;;;;;4976417;28;20046;-88
2022/05/31 12:09:27;;;;;;;8.98;4.90;;;;;;;;;;5004317;28;20043;-88
2022/05/31 12:11:57;;;;;;;8.15;4.63;;;;;;;;;;5004832;28;20561;-87
2022/05/31 12:14:24;;;;;;;8.75;4.93;;;;;;;;;;5004328;28;20502;-78
2022/05/31 12:16:51;;;;;;;10.05;5.53;;;;;;;;;;4989191;28;20479;-89
2022/05/31 12:19:20;;;;;;;7.22;5.05;;;;;;;;;;4984203;28;20053;-89
2022/05/31 12:21:46;;;;;;;9.40;5.28;;;;;;;;;;5005633;28;20439;-90
2022/05/31 12:24:18;;;;;;;9.80;5.65;;;;;;;;;;4988377;28;20042;-90
2022/05/31 12:26:53;;;;;;;11.90;6.30;;;;;;;;;;4987820;28;20038;-85
2022/05/31 12:29:29;;;;;;;8.98;5.78;;;;;;;;;;5004034;28;20497;-87
2022/05/31 12:32:14;;;;;;;11.77;6.28;;;;;;;;;;4981960;28;20054;-91
2022/05/31 12:34:41;;;;;;;10.07;5.55;;;;;;;;;;4987280;28;20053;-90
2022/05/31 12:37:12;;;;;;;8.10;5.47;;;;;;;;;;4971522;28;20122;-90
2022/05/31 12:39:39;;;;;;;9.43;5.10;;;;;;;;;;4987211;28;20057;-90
2022/05/31 12:42:18;;;;;;;10.88;5.13;;;;;;;;;;4996695;28;20060;-84
2022/05/31 12:44:45;;;;;;;11.10;5.55;;;;;;;;;;4974282;28;20093;-88
2022/05/31 12:47:18;;;;;;;8.88;5.43;;;;;;;;;;4987392;28;20042;-84
2022/05/31 12:49:57;;;;;;;12.60;5.18;;;;;;;;;;4987633;28;20122;-89
2022/05/31 12:54:53;;;;;;;9.55;5.88;;;;;;;;;;4988459;28;20135;-89
2022/05/31 12:57:23;;;;;;;13.48;5.88;;;;;;;;;;4981071;28;20093;-88
2022/05/31 12:59:50;;;;;;;8.70;5.60;;;;;;;;;;5000764;28;20042;-90
2022/05/31 13:02:21;;;;;;;7.05;5.25;;;;;;;;;;4986764;28;20051;-87
2022/05/31 13:04:56;;;;;;;10.43;5.32;;;;;;;;;;5000375;28;20050;-89
2022/05/31 13:07:34;;;;;;;10.30;5.63;;;;;;;;;;4981973;28;20092;-87
2022/05/31 13:10:20;;;;;;;8.95;5.05;;;;;;;;;;4976647;28;20047;-90
2022/05/31 13:21:06;;;;;;;7.78;4.40;;;;;;;;;;4973022;28;20035;-88
2022/05/31 13:23:46;;;;;;;8.85;4.68;;;;;;;;;;5003324;28;20479;-90
2022/05/31 13:26:20;;;;;;;9.52;5.00;;;;;;;;;;5016971;28;20035;-91
2022/05/31 13:28:59;;;;;;;7.32;4.75;;;;;;;;;;4986750;28;20074;-91
2022/05/31 13:31:26;;;;;;;9.38;4.32;;;;;;;;;;4983913;28;20396;-89
2022/05/31 13:34:00;;;;;;;7.65;4.65;;;;;;;;;;4986349;28;20046;-91
2022/05/31 13:36:28;;;;;;;8.38;4.43;;;;;;;;;;5000180;28;20380;-89
2022/05/31 13:39:00;;;;;;;8.68;4.80;;;;;;;;;;4970610;28;20126;-86
2022/05/31 13:41:27;;;;;;;7.28;4.80;;;;;;;;;;4991906;28;20085;-90
2022/05/31 13:43:58;;;;;;;10.13;4.70;;;;;;;;;;4985840;28;20045;-88
2022/05/31 13:46:30;;;;;;;7.72;4.72;;;;;;;;;;4971162;28;20050;-84
2022/05/31 13:49:00;;;;;;;7.45;4.40;;;;;;;;;;5011662;28;20050;-88
2022/05/31 13:51:27;;;;;;;8.07;4.88;;;;;;;;;;4975054;28;20043;-81
2022/05/31 13:53:53;;;;;;;10.48;5.07;;;;;;;;;;4979265;28;20042;-86
2022/05/31 13:56:25;;;;;;;7.20;4.25;;;;;;;;;;4990647;28;20046;-88
2022/05/31 13:58:52;;;;;;;7.32;4.75;;;;;;;;;;4995599;28;20042;-85
2022/05/31 14:01:32;;;;;;;7.35;4.47;;;;;;;;;;4985658;28;20038;-85
2022/05/31 14:04:04;;;;;;;6.63;4.38;;;;;;;;;;4983467;28;20153;-84
2022/05/31 14:06:32;;;;;;;8.15;3.97;;;;;;;;;;4979963;28;20038;-84
2022/05/31 14:08:58;;;;;;;6.90;3.88;;;;;;;;;;4988623;28;20469;-76
2022/05/31 14:11:36;;;;;;;8.38;3.90;;;;;;;;;;4969825;28;20089;-77
2022/05/31 14:14:09;;;;;;;6.25;4.18;;;;;;;;;;5002258;28;20175;-77
2022/05/31 14:16:38;;;;;;;6.78;3.97;;;;;;;;;;4971304;28;20164;-84
2022/05/31 14:19:07;;;;;;;5.93;3.50;;;;;;;;;;4981837;28;20058;-85
2022/05/31 14:21:42;;;;;;;6.10;3.60;;;;;;;;;;4996237;28;20093;-85
2022/05/31 14:24:19;;;;;;;7.28;3.83;;;;;;;;;;4974301;28;20096;-79
2022/05/31 14:26:47;;;;;;;8.15;3.75;;;;;;;;;;4970028;28;20043;-81
2022/05/31 14:29:34;;;;;;;7.38;3.83;;;;;;;;;;4985234;28;20043;-81
2022/05/31 14:32:03;;;;;;;5.90;4.05;;;;;;;;;;4970848;28;20665;-84
2022/05/31 14:34:32;;;;;;;7.60;3.60;;;;;;;;;;4981892;28;20082;-86
2022/05/31 14:37:00;;;;;;;6.97;4.03;;;;;;;;;;4970692;28;20478;-83
2022/05/31 14:39:27;;;;;;;8.63;4.80;;;;;;;;;;5002394;28;20462;-78
2022/05/31 14:41:56;;;;;;;6.70;4.30;;;;;;;;;;4994271;28;20038;-89
2022/05/31 14:44:29;;;;;;;7.68;4.25;;;;;;;;;;4958937;28;20039;-86
2022/05/31 14:47:09;;;;;;;7.55;4.63;;;;;;;;;;5002267;28;20557;-87
2022/05/31 14:49:43;;;;;;;10.88;4.32;;;;;;;;;;4967021;28;20499;-87
2022/05/31 14:52:21;;;;;;;6.05;4.40;;;;;;;;;;4968830;28;20514;-87
2022/05/31 14:54:49;;;;;;;5.72;4.20;;;;;;;;;;4956605;28;20055;-87
2022/05/31 14:57:26;;;;;;;7.57;4.25;;;;;;;;;;4971069;28;20042;-87
2022/05/31 14:59:59;;;;;;;6.53;4.18;;;;;;;;;;4977293;28;20403;-86
2022/05/31 15:02:27;;;;;;;5.43;3.67;;;;;;;;;;4964282;28;20122;-86
2022/05/31 15:04:57;;;;;;;5.22;3.80;;;;;;;;;;5000247;28;20348;-87
2022/05/31 15:07:30;;;;;;;7.10;3.92;;;;;;;;;;4988680;28;20137;-87
2022/05/31 15:10:35;;;;;;;6.80;4.25;;;;;;;;;;4994502;28;20051;-86
2022/05/31 15:18:59;;;;;;;5.15;3.60;;;;;;;;;;4957748;28;20050;-86
2022/05/31 15:21:26;;;;;;;5.50;3.78;;;;;;;;;;4940784;29;20050;-86
2022/05/31 15:23:53;;;;;;;6.07;3.58;;;;;;;;;;4953095;28;20043;-86
2022/05/31 15:26:20;;;;;;;5.47;3.33;;;;;;;;;;4953691;28;20085;-86
2022/05/31 15:28:46;;;;;;;5.13;3.08;;;;;;;;;;4953228;28;20047;-86
2022/05/31 15:31:27;;;;;;;4.45;2.85;;;;;;;;;;4985234;28;20043;-87